Vientiane, Lao Peoples Republic

09:56 AM ICT del 04 Maggio 2015 (GMT +0700)
Wattay International | | Change Station
CLOSE
Current Station
Aeroporto
Location: Vientiane,
Altitudine: 561 ft
Stazioni meteo nelle vicinanze

Alt. 561 ft 17.95 °N, 102.57 °E | Updated 26 minutes ago

Partly Cloudy
Parzialmente nuvoloso
84 °F
Sembra 91 °F
N
2
Vento Variabile Vento da Nord

Oggi
Massima -- | Minima -- °F
--% Possibilità di precip.
Ieri
Massima -- | Minima -- °F
Precip. -- in
5:41 AM 6:31 PM
Luna piena, 100% visible
Pressione 29.83 in
Visibilità 6.2 miglia
Nuvole Alcuni 20000 ft
Indice di calore 91 °F
Punto di rugiada 73 °F
Umidità 70%
Piovosità 0.00 in
Spessore del manto nevoso Non disponibile.
Raggi UV 11 fuori da 12
Polline Non disponibile.
Qualità dell'aria Non disponibile.
Flu Activity Non disponibile.
METAR VLVT 040230Z 36002KT 9999 FEW200 29/23 Q1010 NOSIG

More Conditions Fewer Conditions

Pressione 29.83 in
Visibilità 6.2 miglia
Nuvole Alcuni 20000 ft
Indice di calore 91 °F
Punto di rugiada 73 °F
Umidità 70%
Piovosità 0.00 in
Spessore del manto nevoso Non disponibile.
Raggi UV 11 fuori da 12
Polline Non disponibile.
Qualità dell'aria Non disponibile.
Flu Activity Non disponibile.
METAR VLVT 040230Z 36002KT 9999 FEW200 29/23 Q1010 NOSIG

More Conditions Fewer Conditions

10-Day Weather Forecast

Almanac

Astronomia

May. 04, 2015 Alba Tramonto
Ora attuale
Crepuscolo civile
Crepuscolo nautico
Crepuscolo astronomico
Luna
Estensione della luce visibile
Lunghezza del giorno
Tomorrow will be .
, % of the Moon is Illuminated

Gli estremi di oggi

Massime Regione Minime Regione

Community

WunderPhotos

Upload Photos

1,818,482 foto caricate!

WunderBlogs® & News

Nearby

Qualità dell'aria

  Qualità dell'aria Indice AQ Inquinante
Not available.

Profondità neve

Stazione Profondità Altitudine

Attività sismica

Città  Distanza Mag. Data & Ora
Minimo Magnitudo Mostrato è 2.5.

Temperature delle acque costiere

Località Temperatura

Stations

Stazioni meteo nelle vicinanze

Ubicazione della stazione Temp. Raffreddamento del vento Punto di rugiada Umidità Vento Precip. Alt. Aggiornato Tipo